Time;durP1;ratioP1;P1;durP2;ratioP2;P2;SDS_P1;SDS_P2;PMS_P1;PMS_P2;Temp;Humidity;BMP_temperature;BMP_pressure;BME280_temperature;BME280_humidity;BME280_pressure;Samples;Min_cycle;Max_cycle;Signal;HPM_P1;HPM_P2
2022/05/01 00:01:01;;;;;;;;;12.33;11.00;;;;;12.28;44.04;102089.53;5099450;27;45325;-39
2022/05/01 00:03:36;;;;;;;;;11.67;8.00;;;;;12.27;43.65;102082.50;5099797;27;45494;-39
2022/05/01 00:06:06;;;;;;;;;13.00;12.33;;;;;12.22;43.47;102088.22;5099870;27;45265;-41
2022/05/01 00:08:33;;;;;;;;;16.67;12.00;;;;;12.20;44.52;102093.66;5099179;27;47082;-38
2022/05/01 00:11:00;;;;;;;;;10.67;8.67;;;;;12.07;44.06;102076.09;5099177;27;45388;-43
2022/05/01 00:13:26;;;;;;;;;10.67;9.33;;;;;12.16;43.85;102088.69;5099048;27;45459;-39
2022/05/01 00:15:52;;;;;;;;;12.00;12.00;;;;;12.11;44.72;102086.41;5099487;27;45323;-42
2022/05/01 00:18:18;;;;;;;;;11.33;8.67;;;;;12.09;44.11;102090.16;5099196;27;47129;-40
2022/05/01 00:20:44;;;;;;;;;11.33;8.67;;;;;12.03;43.84;102085.31;5099164;27;45427;-40
2022/05/01 00:23:10;;;;;;;;;13.67;12.33;;;;;12.02;44.51;102087.16;5097591;27;45341;-40
2022/05/01 00:25:38;;;;;;;;;14.67;11.67;;;;;11.95;44.76;102081.44;5099306;27;45267;-39
2022/05/01 00:28:04;;;;;;;;;13.33;8.67;;;;;11.95;44.00;102086.78;5098984;27;45306;-39
2022/05/01 00:30:29;;;;;;;;;15.33;13.00;;;;;11.94;44.96;102090.44;5099432;27;45384;-39
2022/05/01 00:38:24;;;;;;;;;16.50;13.50;;;;;11.82;45.36;102078.03;5099202;27;45520;-41
2022/05/01 00:40:50;;;;;;;;;13.75;12.00;;;;;11.79;45.52;102075.59;5098997;27;45226;-41
2022/05/01 00:43:15;;;;;;;;;14.00;11.00;;;;;11.82;45.30;102086.03;5098723;27;45401;-41
2022/05/01 00:45:41;;;;;;;;;14.00;11.33;;;;;11.80;45.57;102092.44;5099292;27;45180;-41
2022/05/01 00:48:07;;;;;;;;;16.33;11.33;;;;;11.78;45.67;102086.41;5098694;27;46083;-45
2022/05/01 00:50:32;;;;;;;;;13.67;11.33;;;;;11.69;45.41;102064.84;5098916;27;45297;-43
2022/05/01 00:52:58;;;;;;;;;13.75;12.50;;;;;11.71;45.83;102083.34;5098918;27;45299;-41
2022/05/01 00:55:24;;;;;;;;;14.50;11.00;;;;;11.68;45.25;102073.81;5099002;27;45326;-43
2022/05/01 00:57:49;;;;;;;;;12.75;11.00;;;;;11.63;46.43;102069.78;5098180;27;46097;-38
2022/05/01 01:00:19;;;;;;;;;16.67;11.00;;;;;11.66;45.90;102072.22;5098575;27;45460;-39
2022/05/01 01:02:47;;;;;;;;;14.67;12.67;;;;;11.65;46.06;102079.38;5098820;27;45266;-40
2022/05/01 01:05:13;;;;;;;;;10.00;10.00;;;;;11.65;46.54;102076.72;5098907;27;45311;-39
2022/05/01 01:07:39;;;;;;;;;12.25;12.25;;;;;11.66;46.35;102073.06;5098385;27;45404;-40
2022/05/01 01:10:05;;;;;;;;;12.00;10.00;;;;;11.64;46.40;102069.69;5098282;27;45456;-39
2022/05/01 01:15:15;;;;;;;;;12.00;10.75;;;;;11.57;45.56;102063.13;5098593;27;45473;-39
2022/05/01 01:17:42;;;;;;;;;16.50;12.50;;;;;11.57;45.89;102068.47;5098403;27;45459;-41
2022/05/01 01:20:17;;;;;;;;;12.67;10.00;;;;;11.53;46.26;102069.69;5098343;27;45232;-39
2022/05/01 01:22:44;;;;;;;;;17.00;17.00;;;;;11.51;46.72;102071.63;5114279;27;45416;-40
2022/05/01 01:25:10;;;;;;;;;13.50;10.25;;;;;11.44;46.79;102068.59;5098510;27;45390;-40
2022/05/01 01:27:40;;;;;;;;;16.00;14.00;;;;;11.44;46.76;102070.41;5097792;27;46059;-44
2022/05/01 01:32:51;;;;;;;;;10.50;10.25;;;;;11.34;47.14;102061.44;5098186;27;45454;-39
2022/05/01 01:35:22;;;;;;;;;13.25;11.75;;;;;11.35;47.02;102063.97;5098223;27;45403;-39
2022/05/01 01:37:49;;;;;;;;;16.25;13.25;;;;;11.33;47.29;102065.06;5098388;27;46388;-40
2022/05/01 01:40:20;;;;;;;;;16.00;10.50;;;;;11.16;47.28;102043.22;5098253;27;45428;-43
2022/05/01 01:42:47;;;;;;;;;16.75;15.25;;;;;11.26;47.33;102067.34;5098073;27;45500;-41
2022/05/01 01:45:13;;;;;;;;;15.25;13.25;;;;;11.24;47.63;102061.28;5098623;27;45402;-39
2022/05/01 01:47:39;;;;;;;;;17.75;15.25;;;;;11.21;47.93;102062.38;5097741;27;45413;-44
2022/05/01 01:50:05;;;;;;;;;17.00;12.50;;;;;11.21;47.92;102054.41;5097433;27;45384;-40
2022/05/01 01:52:33;;;;;;;;;19.00;15.25;;;;;11.19;47.45;102066.13;5097786;27;45452;-46
2022/05/01 01:54:59;;;;;;;;;18.00;15.25;;;;;11.16;47.50;102061.88;5097612;27;45500;-40
2022/05/01 01:57:25;;;;;;;;;15.00;12.75;;;;;11.14;48.38;102060.31;5097189;27;45508;-39
2022/05/01 01:59:50;;;;;;;;;21.25;16.50;;;;;11.09;48.28;102062.50;5097219;27;45432;-42
2022/05/01 02:02:15;;;;;;;;;23.00;17.00;;;;;11.07;48.50;102059.06;5097662;27;45273;-41
2022/05/01 02:04:41;;;;;;;;;19.75;17.75;;;;;11.06;48.29;102060.06;5097860;27;45214;-42
2022/05/01 02:07:06;;;;;;;;;18.25;14.75;;;;;11.04;48.59;102067.28;5097353;27;46083;-40
2022/05/01 02:09:36;;;;;;;;;23.50;17.00;;;;;10.97;48.12;102057.13;5097282;27;45283;-43
2022/05/01 02:12:02;;;;;;;;;15.75;15.00;;;;;11.00;48.49;102061.38;5096315;27;45445;-44
2022/05/01 02:14:27;;;;;;;;;19.50;13.25;;;;;10.97;48.00;102053.63;5097349;27;45343;-44
2022/05/01 02:16:55;;;;;;;;;16.75;15.75;;;;;10.92;48.16;102053.97;5097291;27;45315;-40
2022/05/01 02:19:20;;;;;;;;;19.00;19.00;;;;;10.88;48.85;102047.19;5096916;27;45371;-39
2022/05/01 02:21:47;;;;;;;;;19.50;16.25;;;;;10.83;48.37;102044.03;5097568;27;45616;-42
2022/05/01 02:24:12;;;;;;;;;20.50;16.75;;;;;10.82;48.91;102050.28;5097750;27;45334;-40
2022/05/01 02:26:38;;;;;;;;;21.50;13.50;;;;;10.68;49.83;102039.84;5097212;27;46952;-41
2022/05/01 02:29:10;;;;;;;;;21.75;16.50;;;;;10.75;49.92;102054.41;5097007;27;45555;-41
2022/05/01 02:31:40;;;;;;;;;15.50;15.00;;;;;10.72;49.51;102052.81;5097409;27;45229;-40
2022/05/01 02:34:06;;;;;;;;;18.00;16.00;;;;;10.73;48.46;102053.66;5097503;27;45294;-40
2022/05/01 02:36:31;;;;;;;;;8.00;8.00;;;;;10.70;49.31;102041.44;5096844;27;46273;-38
2022/05/01 02:38:57;;;;;;;;;22.00;20.50;;;;;10.67;50.28;102041.66;5097190;27;45337;-40
2022/05/01 02:41:22;;;;;;;;;21.75;16.25;;;;;10.68;49.39;102037.19;5099734;27;45279;-39
2022/05/01 02:43:48;;;;;;;;;18.75;11.75;;;;;10.64;49.15;102028.59;5099720;27;45425;-38
2022/05/01 02:46:16;;;;;;;;;21.00;13.75;;;;;10.62;50.20;102034.97;5100645;27;46089;-40
2022/05/01 02:48:42;;;;;;;;;16.50;14.25;;;;;10.62;49.96;102032.31;5099486;27;45442;-40
2022/05/01 02:51:07;;;;;;;;;17.75;16.00;;;;;10.60;50.60;102035.09;5100814;27;45234;-39
2022/05/01 02:53:33;;;;;;;;;20.50;16.75;;;;;10.59;50.48;102033.41;5101249;27;45227;-42
2022/05/01 02:56:02;;;;;;;;;19.75;14.00;;;;;10.60;50.58;102029.78;5099238;27;48014;-40
2022/05/01 02:58:29;;;;;;;;;24.75;20.50;;;;;10.57;50.22;102027.34;5100267;27;45477;-43
2022/05/01 03:00:55;;;;;;;;;17.50;16.00;;;;;10.58;49.99;102026.41;5100726;27;45331;-42
2022/05/01 03:03:21;;;;;;;;;26.00;19.25;;;;;10.57;50.19;102027.34;5100623;27;45429;-42
2022/05/01 03:05:47;;;;;;;;;22.75;17.25;;;;;10.56;51.15;102024.81;5100367;27;47257;-42
2022/05/01 03:08:12;;;;;;;;;24.25;19.00;;;;;10.56;50.69;102028.31;5100390;27;45471;-41
2022/05/01 03:10:39;;;;;;;;;19.00;18.50;;;;;10.56;50.74;102025.66;5100492;27;45414;-42
2022/05/01 03:13:04;;;;;;;;;24.75;19.00;;;;;10.55;50.73;102017.78;5100924;27;45366;-43
2022/05/01 03:15:30;;;;;;;;;21.50;16.25;;;;;10.56;50.64;102024.81;5099837;27;46350;-42
2022/05/01 03:23:23;;;;;;;;;19.00;16.25;;;;;10.51;50.24;102019.00;5100485;27;45306;-43
2022/05/01 03:25:48;;;;;;;;;18.25;14.75;;;;;10.50;50.60;102012.81;5100114;27;45912;-43
2022/05/01 03:28:13;;;;;;;;;30.50;19.75;;;;;10.49;50.61;102013.75;5100084;27;45217;-42
2022/05/01 03:30:39;;;;;;;;;21.50;17.00;;;;;10.46;50.39;102000.72;5100261;27;45263;-42
2022/05/01 03:33:07;;;;;;;;;27.50;17.00;;;;;10.40;50.46;102003.81;5100386;27;45368;-43
2022/05/01 03:35:35;;;;;;;;;15.50;15.50;;;;;10.39;50.19;102007.44;5100065;27;47170;-41
2022/05/01 03:38:04;;;;;;;;;15.00;13.75;;;;;10.37;50.27;102007.56;5099748;27;45360;-41
2022/05/01 03:40:30;;;;;;;;;19.25;15.50;;;;;10.35;50.87;102006.81;5099936;27;45413;-43
2022/05/01 03:42:56;;;;;;;;;21.00;15.75;;;;;10.33;51.17;102000.78;5100196;27;45293;-45
2022/05/01 03:45:21;;;;;;;;;16.25;14.75;;;;;10.32;51.24;102003.53;5099663;27;46224;-42
2022/05/01 03:47:46;;;;;;;;;21.25;15.50;;;;;10.31;50.49;102002.69;5099635;27;45357;-44
2022/05/01 03:50:12;;;;;;;;;23.50;17.75;;;;;10.30;51.27;102005.47;5099849;27;45337;-42
2022/05/01 03:52:38;;;;;;;;;18.75;18.00;;;;;10.25;51.25;101995.19;5099633;27;45350;-41
2022/05/01 03:55:04;;;;;;;;;17.50;14.25;;;;;10.25;51.05;101989.88;5099632;27;46244;-43
2022/05/01 03:57:30;;;;;;;;;21.50;19.25;;;;;10.23;51.33;101989.09;5099531;27;45274;-44
2022/05/01 03:59:55;;;;;;;;;19.00;16.75;;;;;10.19;50.90;101988.47;5099425;27;45376;-42
2022/05/01 04:02:21;;;;;;;;;22.00;17.25;;;;;10.23;51.13;102007.69;5099968;27;45524;-44
2022/05/01 04:04:48;;;;;;;;;22.50;18.75;;;;;10.22;51.45;102000.69;5099475;27;47118;-41
2022/05/01 04:07:13;;;;;;;;;21.50;17.00;;;;;10.18;51.90;101993.91;5099533;27;45247;-42
2022/05/01 04:09:39;;;;;;;;;20.00;16.75;;;;;10.18;51.05;101994.75;5099386;27;45180;-46
2022/05/01 04:12:05;;;;;;;;;23.50;18.00;;;;;10.20;51.93;101995.50;5099861;27;45241;-40
2022/05/01 04:14:32;;;;;;;;;11.50;11.50;;;;;10.18;52.03;101996.56;5099076;27;46055;-46
2022/05/01 04:16:59;;;;;;;;;19.25;16.75;;;;;10.18;52.16;101988.59;5099200;27;45332;-43
2022/05/01 04:19:25;;;;;;;;;19.75;16.25;;;;;10.15;51.71;101983.47;5099317;27;45384;-42
2022/05/01 04:21:50;;;;;;;;;17.00;14.75;;;;;10.18;51.96;102000.06;5099367;27;45310;-44
2022/05/01 04:24:15;;;;;;;;;24.25;16.50;;;;;10.21;51.98;101993.69;5099242;27;46404;-39
2022/05/01 04:26:41;;;;;;;;;20.50;16.25;;;;;10.21;52.14;101997.19;5099292;27;45329;-44
2022/05/01 04:31:50;;;;;;;;;24.00;18.00;;;;;10.23;51.75;101997.91;5099204;27;45299;-42
2022/05/01 04:34:15;;;;;;;;;23.25;19.00;;;;;10.22;51.53;101998.88;5098876;27;45889;-42
2022/05/01 04:36:42;;;;;;;;;19.00;17.50;;;;;10.06;52.20;101977.03;5099169;27;45393;-43
2022/05/01 04:39:07;;;;;;;;;20.50;14.50;;;;;10.17;51.60;101993.06;5099244;27;45439;-43
2022/05/01 04:41:32;;;;;;;;;21.25;17.25;;;;;10.18;52.40;102005.38;5099189;27;45320;-45
2022/05/01 04:43:58;;;;;;;;;17.75;16.00;;;;;10.18;52.55;101996.56;5098765;27;46992;-44
2022/05/01 04:46:23;;;;;;;;;32.00;19.00;;;;;10.19;51.36;102000.91;5098883;27;45412;-45
2022/05/01 04:48:48;;;;;;;;;25.75;17.00;;;;;10.18;51.73;101996.56;5098800;27;45176;-43
2022/05/01 04:51:14;;;;;;;;;27.50;17.00;;;;;10.18;52.01;101999.22;5099243;27;45258;-44
2022/05/01 04:53:39;;;;;;;;;24.50;17.75;;;;;10.17;52.16;101995.72;5098885;27;45318;-42
2022/05/01 04:58:49;;;;;;;;;25.50;19.25;;;;;10.18;52.23;102005.38;5098505;27;45228;-40
2022/05/01 05:01:15;;;;;;;;;21.75;20.50;;;;;10.20;52.29;102007.94;5098903;27;45421;-42
2022/05/01 05:03:41;;;;;;;;;20.50;16.00;;;;;10.20;51.92;102000.81;5097601;27;47194;-41
2022/05/01 05:06:06;;;;;;;;;21.50;17.25;;;;;10.17;51.98;101994.88;5098441;27;45334;-39
2022/05/01 05:11:15;;;;;;;;;20.00;19.00;;;;;10.24;51.91;102009.41;5098792;27;45460;-41
2022/05/01 05:13:41;;;;;;;;;23.00;19.00;;;;;10.26;52.34;102019.97;5098382;27;47671;-41
2022/05/01 05:16:12;;;;;;;;;21.50;19.25;;;;;10.24;51.81;102007.63;5098562;27;45794;-41
2022/05/01 05:18:40;;;;;;;;;27.50;20.00;;;;;10.33;52.27;102018.56;5098758;27;45328;-41
2022/05/01 05:21:08;;;;;;;;;20.00;14.50;;;;;10.35;52.05;102020.13;5098613;27;45345;-41
2022/05/01 05:23:34;;;;;;;;;28.50;18.25;;;;;10.39;52.67;102024.25;5098207;27;45294;-41
2022/05/01 05:25:59;;;;;;;;;20.25;17.75;;;;;10.43;52.57;102014.22;5098137;27;45403;-40
2022/05/01 05:28:25;;;;;;;;;25.00;19.50;;;;;10.48;52.33;102020.06;5098301;27;45344;-40
2022/05/01 05:30:51;;;;;;;;;25.50;21.00;;;;;10.48;51.58;102015.56;5098288;27;45255;-39
2022/05/01 05:33:18;;;;;;;;;25.00;20.50;;;;;10.58;51.60;102013.09;5098066;27;46175;-43
2022/05/01 05:35:43;;;;;;;;;20.25;17.75;;;;;10.63;51.32;102026.91;5098127;27;45338;-48
2022/05/01 05:38:09;;;;;;;;;24.25;21.00;;;;;10.63;51.20;102021.56;5098023;27;45223;-40
2022/05/01 05:40:34;;;;;;;;;27.75;23.00;;;;;10.74;51.50;102040.25;5098182;27;45476;-39
2022/05/01 05:43:00;;;;;;;;;21.00;19.25;;;;;10.79;51.94;102031.03;5097889;27;47060;-38
2022/05/01 05:45:25;;;;;;;;;26.00;21.75;;;;;10.75;51.74;102011.81;5113858;27;45487;-39
2022/05/01 05:47:51;;;;;;;;;30.75;23.00;;;;;10.78;51.44;102003.56;5098167;27;45357;-40
2022/05/01 05:50:17;;;;;;;;;32.25;23.00;;;;;10.81;51.35;102002.50;5098075;27;45427;-43
2022/05/01 05:52:43;;;;;;;;;19.50;15.75;;;;;10.99;50.65;102028.56;5097608;27;46361;-44
2022/05/01 05:55:09;;;;;;;;;28.75;22.25;;;;;11.03;50.32;102023.84;5097840;27;45455;-40
2022/05/01 05:57:34;;;;;;;;;20.75;18.00;;;;;11.06;50.69;102018.28;5097643;27;45501;-42
2022/05/01 06:00:00;;;;;;;;;25.25;18.75;;;;;11.11;50.79;102024.09;5098010;27;45411;-40
2022/05/01 06:02:26;;;;;;;;;32.25;25.75;;;;;11.04;50.97;102004.25;5097395;27;45966;-41
2022/05/01 06:04:51;;;;;;;;;23.00;17.00;;;;;11.18;50.45;102008.50;5097434;27;45398;-42
2022/05/01 06:07:16;;;;;;;;;25.75;21.75;;;;;11.30;50.55;102020.03;5097617;27;45767;-39
2022/05/01 06:09:42;;;;;;;;;27.75;21.25;;;;;11.25;50.13;102004.41;5097781;27;45290;-38
2022/05/01 06:12:09;;;;;;;;;29.50;23.00;;;;;11.42;50.02;102005.75;5097515;27;46564;-42
2022/05/01 06:14:35;;;;;;;;;29.25;24.50;;;;;11.46;50.64;102004.50;5098528;27;45389;-40
2022/05/01 06:17:00;;;;;;;;;29.50;22.25;;;;;11.53;50.38;102011.03;5101300;27;45369;-41
2022/05/01 06:19:26;;;;;;;;;26.75;21.75;;;;;11.68;49.77;102015.16;5101278;27;45342;-41
2022/05/01 06:21:51;;;;;;;;;18.25;13.75;;;;;11.77;49.30;102016.25;5101043;27;46943;-39
2022/05/01 06:24:16;;;;;;;;;24.75;22.50;;;;;11.88;49.74;102018.06;5101088;27;45416;-43
2022/05/01 06:26:42;;;;;;;;;26.00;20.25;;;;;11.98;49.08;102019.03;5099774;27;45258;-38
2022/05/01 06:29:08;;;;;;;;;29.50;23.50;;;;;12.07;48.83;102020.09;5101358;27;45331;-39
2022/05/01 06:31:34;;;;;;;;;34.00;27.00;;;;;12.17;49.14;102021.88;5100682;27;46284;-40
2022/05/01 06:34:00;;;;;;;;;25.75;23.00;;;;;12.33;48.71;102025.97;5100880;27;45441;-41
2022/05/01 06:36:25;;;;;;;;;32.75;25.50;;;;;12.43;48.55;102025.09;5101083;27;45418;-40
2022/05/01 06:38:51;;;;;;;;;31.25;26.75;;;;;12.61;48.21;102019.19;5101085;27;45397;-39
2022/05/01 06:41:17;;;;;;;;;26.25;21.50;;;;;12.74;47.82;102022.50;5100602;27;47111;-43
2022/05/01 06:43:43;;;;;;;;;33.75;28.50;;;;;12.87;48.06;102025.81;5100768;27;45177;-40
2022/05/01 06:46:08;;;;;;;;;36.00;25.00;;;;;13.01;47.99;102029.13;5100720;27;45219;-39
2022/05/01 06:48:34;;;;;;;;;25.50;20.25;;;;;13.12;47.47;102035.25;5100987;27;45345;-44
2022/05/01 06:51:00;;;;;;;;;29.25;22.50;;;;;13.22;47.38;102046.88;5100485;27;46377;-38
2022/05/01 06:53:26;;;;;;;;;34.25;24.75;;;;;13.38;46.75;102037.53;5100556;27;45394;-45
2022/05/01 06:55:53;;;;;;;;;32.00;25.25;;;;;13.60;46.52;102036.50;5100440;27;45472;-40
2022/05/01 06:58:19;;;;;;;;;29.00;25.50;;;;;13.96;46.34;102045.78;5100718;27;45507;-40
2022/05/01 07:00:45;;;;;;;;;26.75;25.75;;;;;14.57;44.90;102039.38;5099927;27;45455;-41
2022/05/01 07:03:10;;;;;;;;;30.50;21.75;;;;;15.20;43.59;102034.38;5100518;27;45824;-39
2022/05/01 07:05:36;;;;;;;;;31.75;24.50;;;;;15.75;42.62;102030.94;5099236;27;45287;-39
2022/05/01 07:08:01;;;;;;;;;30.50;26.50;;;;;16.18;41.79;102025.75;5100745;27;45367;-38
2022/05/01 07:10:26;;;;;;;;;29.33;23.00;;;;;16.63;40.94;102029.34;5100338;27;46403;-39
2022/05/01 07:12:52;;;;;;;;;30.00;26.00;;;;;17.07;40.43;102018.63;5100601;27;45269;-38
2022/05/01 07:15:17;;;;;;;;;34.33;25.67;;;;;17.41;39.68;102018.66;5100626;27;45212;-41
2022/05/01 07:17:43;;;;;;;;;31.00;20.67;;;;;17.78;39.21;102021.03;5100616;27;45364;-41
2022/05/01 07:20:09;;;;;;;;;33.00;25.33;;;;;18.14;38.95;102028.88;5100311;27;46232;-42
2022/05/01 07:22:35;;;;;;;;;24.00;17.33;;;;;18.49;40.66;102016.94;5100373;27;45328;-40
2022/05/01 07:25:00;;;;;;;;;30.33;22.00;;;;;18.84;37.73;102014.97;5100468;27;45353;-38
2022/05/01 07:27:26;;;;;;;;;32.33;27.67;;;;;19.15;36.11;102013.22;5099733;27;45443;-39
2022/05/01 07:29:51;;;;;;;;;27.67;25.67;;;;;19.48;36.34;102012.28;5100262;27;45445;-40
2022/05/01 07:32:16;;;;;;;;;28.67;24.00;;;;;19.83;35.35;102002.88;5099931;27;45478;-40
2022/05/01 07:34:42;;;;;;;;;27.67;23.33;;;;;20.09;34.13;101989.88;5100135;27;45499;-40
2022/05/01 07:37:07;;;;;;;;;31.00;25.33;;;;;20.60;34.44;102006.41;5100211;27;45260;-44
2022/05/01 07:39:33;;;;;;;;;30.00;24.00;;;;;21.00;34.63;102009.78;5099850;27;46452;-40
2022/05/01 07:41:58;;;;;;;;;29.67;24.00;;;;;21.41;32.67;102009.38;5100022;27;45396;-39
2022/05/01 07:44:24;;;;;;;;;27.33;23.33;;;;;21.89;32.80;101999.75;5100056;27;45396;-40
2022/05/01 07:46:51;;;;;;;;;28.33;27.00;;;;;22.74;30.79;102008.09;5099971;27;45425;-40
2022/05/01 07:49:17;;;;;;;;;24.33;23.67;;;;;24.04;29.06;101991.94;5099871;27;46128;-40
2022/05/01 07:51:42;;;;;;;;;33.67;24.33;;;;;25.35;28.07;101994.03;5100081;27;45408;-40
2022/05/01 07:54:07;;;;;;;;;29.67;25.67;;;;;26.33;25.96;101991.84;5100156;27;45258;-40
2022/05/01 07:56:34;;;;;;;;;30.67;25.67;;;;;26.96;25.04;101985.47;5099977;27;45239;-40
2022/05/01 07:59:00;;;;;;;;;24.67;21.67;;;;;27.52;24.54;101983.63;5099758;27;46314;-41
2022/05/01 08:01:25;;;;;;;;;19.00;17.00;;;;;28.20;23.89;101979.75;5098528;27;45288;-42
2022/05/01 08:06:35;;;;;;;;;27.75;26.25;;;;;29.77;21.81;101981.72;5100192;27;45227;-39
2022/05/01 08:09:01;;;;;;;;;21.00;20.25;;;;;30.39;21.68;101972.69;5099923;27;47184;-41
2022/05/01 08:11:26;;;;;;;;;24.00;19.00;;;;;31.16;23.14;101970.00;5100208;27;45431;-42
2022/05/01 08:13:51;;;;;;;;;13.00;12.00;;;;;31.94;21.95;101967.94;5100633;27;45420;-41
2022/05/01 08:16:17;;;;;;;;;18.00;17.75;;;;;32.59;19.41;101963.28;5099463;27;45499;-42
2022/05/01 08:21:31;;;;;;;;;21.80;18.80;;;;;33.66;18.76;101954.72;5100287;27;45417;-41
2022/05/01 08:23:57;;;;;;;;;20.40;18.20;;;;;33.97;17.78;101956.47;5100567;27;45314;-42
2022/05/01 08:26:23;;;;;;;;;24.00;21.75;;;;;34.33;18.64;101956.44;5099722;27;45382;-42
2022/05/01 08:28:53;;;;;;;;;22.40;18.20;;;;;34.81;16.52;101958.88;5098855;27;45241;-39
2022/05/01 08:31:18;;;;;;;;;19.80;17.20;;;;;35.26;16.38;101955.16;5099041;27;45433;-38
2022/05/01 08:33:44;;;;;;;;;12.75;12.75;;;;;35.55;15.44;101957.25;5114919;27;45457;-41
2022/05/01 08:36:09;;;;;;;;;18.50;17.25;;;;;35.90;16.42;101950.66;5099521;27;45369;-41
2022/05/01 08:38:38;;;;;;;;;20.00;18.00;;;;;36.54;14.93;101943.25;5096230;27;46151;-39
2022/05/01 08:41:05;;;;;;;;;16.80;16.80;;;;;37.08;15.01;101926.25;5098859;27;45196;-40
2022/05/01 08:43:31;;;;;;;;;21.40;18.40;;;;;37.43;14.80;101947.19;5099088;27;45297;-41
2022/05/01 08:46:23;;;;;;;;;17.00;15.40;;;;;37.84;16.97;101935.47;5099110;27;45321;-40
2022/05/01 08:49:02;;;;;;;;;23.40;16.40;;;;;38.15;16.12;101946.09;5098370;27;46319;-42
2022/05/01 08:51:34;;;;;;;;;18.40;15.80;;;;;37.85;16.44;101944.63;5098659;27;45485;-40
2022/05/01 08:54:04;;;;;;;;;15.00;15.00;;;;;37.42;15.73;101941.91;5098982;27;45350;-41
2022/05/01 08:56:31;;;;;;;;;16.60;16.60;;;;;37.16;14.11;101941.41;5099115;27;45314;-42
2022/05/01 08:58:57;;;;;;;;;17.80;16.20;;;;;37.08;14.25;101945.66;5098527;27;46347;-44
2022/05/01 09:01:23;;;;;;;;;19.60;17.40;;;;;37.01;14.72;101941.63;5098780;27;45447;-44
2022/05/01 09:03:49;;;;;;;;;19.50;18.25;;;;;36.81;13.92;101937.94;5098557;27;45176;-44
2022/05/01 09:06:14;;;;;;;;;19.20;16.20;;;;;36.63;15.52;101944.25;5098760;27;45525;-42
2022/05/01 09:08:40;;;;;;;;;20.75;19.25;;;;;36.50;14.84;101939.41;5098470;27;46055;-43
2022/05/01 09:13:51;;;;;;;;;18.80;18.20;;;;;36.19;15.80;101929.38;5098511;27;45290;-42
2022/05/01 09:16:16;;;;;;;;;21.75;20.75;;;;;36.11;15.87;101926.41;5098489;27;45313;-40
2022/05/01 09:18:46;;;;;;;;;21.00;18.00;;;;;35.80;14.97;101926.63;5098010;27;46296;-39
2022/05/01 09:21:13;;;;;;;;;19.80;16.80;;;;;35.53;14.92;101923.53;5098161;27;45363;-41
2022/05/01 09:23:46;;;;;;;;;18.60;17.20;;;;;35.15;15.64;101929.50;5098495;27;45447;-40
2022/05/01 09:26:14;;;;;;;;;20.20;16.80;;;;;34.64;15.55;101937.09;5098539;27;45340;-40
2022/05/01 09:28:53;;;;;;;;;17.40;16.80;;;;;34.17;16.31;101927.19;5098015;27;46274;-43
2022/05/01 09:31:46;;;;;;;;;24.00;18.80;;;;;34.30;16.43;101932.13;5098184;27;45402;-40
2022/05/01 09:34:21;;;;;;;;;19.00;16.00;;;;;34.97;15.35;101914.34;5098043;27;45416;-43
2022/05/01 09:36:47;;;;;;;;;17.80;17.80;;;;;35.85;15.39;101926.59;5098360;27;45318;-40
2022/05/01 09:39:23;;;;;;;;;14.20;11.40;;;;;36.27;14.91;101922.38;5097849;27;46518;-43
2022/05/01 09:41:49;;;;;;;;;15.20;14.60;;;;;36.63;14.46;101916.53;5097946;27;45290;-41
2022/05/01 09:44:17;;;;;;;;;12.80;12.40;;;;;36.75;13.96;101922.47;5098362;27;45307;-41
2022/05/01 09:46:47;;;;;;;;;14.80;14.00;;;;;36.82;13.27;101913.78;5098353;27;45401;-42
2022/05/01 09:49:15;;;;;;;;;14.80;14.80;;;;;37.41;12.60;101912.50;5097065;27;46374;-40
2022/05/01 09:51:43;;;;;;;;;16.60;15.00;;;;;37.71;13.00;101908.44;5097879;27;45315;-40
2022/05/01 09:54:16;;;;;;;;;12.80;12.80;;;;;37.93;12.58;101902.28;5097876;27;45389;-40
2022/05/01 09:56:46;;;;;;;;;20.20;14.80;;;;;38.34;13.60;101904.34;5097881;27;45285;-40
2022/05/01 09:59:13;;;;;;;;;18.60;14.80;;;;;38.63;12.21;101906.84;5097489;27;45588;-39
2022/05/01 10:01:40;;;;;;;;;15.60;14.60;;;;;38.55;12.17;101907.56;5097587;27;45399;-41
2022/05/01 10:04:06;;;;;;;;;17.20;14.40;;;;;38.16;12.92;101903.25;5097226;27;45377;-45
2022/05/01 10:06:32;;;;;;;;;21.00;15.75;;;;;37.54;13.76;101885.94;5097825;27;45451;-41
2022/05/01 10:08:59;;;;;;;;;18.20;15.60;;;;;36.77;13.32;101895.28;5097108;27;45457;-40
2022/05/01 10:11:26;;;;;;;;;17.40;15.60;;;;;36.36;13.12;101900.41;5097383;27;45322;-41
2022/05/01 10:13:51;;;;;;;;;14.40;14.40;;;;;36.03;14.35;101899.34;5113452;27;45460;-44
2022/05/01 10:16:17;;;;;;;;;17.50;15.50;;;;;35.86;14.83;101894.19;5097552;27;45421;-41
2022/05/01 10:18:44;;;;;;;;;15.75;15.25;;;;;35.85;14.22;101896.13;5097451;27;45990;-41
2022/05/01 10:21:11;;;;;;;;;15.20;14.00;;;;;35.72;13.54;101897.63;5097218;27;45321;-40
2022/05/01 10:23:38;;;;;;;;;20.20;17.40;;;;;35.62;13.89;101897.72;5097484;27;45254;-42
2022/05/01 10:26:20;;;;;;;;;16.20;14.80;;;;;35.64;13.99;101887.16;5097390;27;45327;-39
2022/05/01 10:29:04;;;;;;;;;23.20;18.60;;;;;36.02;13.98;101883.84;5097115;27;46192;-40
2022/05/01 10:34:45;;;;;;;;;18.20;14.20;;;;;37.04;13.55;101866.09;5097157;27;45518;-40
2022/05/01 10:37:52;;;;;;;;;14.80;14.20;;;;;37.16;13.68;101867.31;5097375;27;45267;-40
2022/05/01 10:40:18;;;;;;;;;21.20;18.40;;;;;36.55;13.55;101858.94;5053643;28;45596;-41
2022/05/01 10:42:49;;;;;;;;;17.75;17.75;;;;;36.45;13.72;101855.19;5054054;28;45534;-40
2022/05/01 10:45:20;;;;;;;;;17.00;16.40;;;;;36.27;13.86;101858.66;5054007;28;45422;-41
2022/05/01 10:47:48;;;;;;;;;16.60;15.40;;;;;35.94;13.83;101858.38;5054491;28;45248;-38
2022/05/01 10:50:20;;;;;;;;;14.60;14.60;;;;;35.40;14.43;101855.78;5053641;28;46219;-40
2022/05/01 10:53:03;;;;;;;;;19.20;17.60;;;;;35.16;14.13;101852.88;5053927;28;45480;-40
2022/05/01 10:55:51;;;;;;;;;19.20;17.80;;;;;34.80;15.10;101853.00;5054085;28;45463;-38
2022/05/01 10:58:30;;;;;;;;;18.00;15.60;;;;;34.71;14.57;101843.66;5033449;28;45372;-40
2022/05/01 11:00:56;;;;;;;;;17.60;15.00;;;;;34.70;14.13;101839.25;5033879;28;47450;-38
2022/05/01 11:03:28;;;;;;;;;14.60;12.20;;;;;34.57;14.32;101835.16;5037219;28;45284;-40
2022/05/01 11:06:08;;;;;;;;;16.80;16.40;;;;;34.49;14.32;101841.25;5037003;28;45368;-40
2022/05/01 11:08:36;;;;;;;;;20.20;18.80;;;;;34.70;14.58;101834.53;5036872;28;45395;-39
2022/05/01 11:11:05;;;;;;;;;18.40;18.00;;;;;35.25;14.29;101832.63;5036689;28;46129;-39
2022/05/01 11:13:38;;;;;;;;;16.40;14.60;;;;;35.32;14.29;101829.53;5036805;28;45433;-39
2022/05/01 11:16:08;;;;;;;;;15.80;14.40;;;;;34.92;14.41;101820.34;5036921;28;45280;-39
2022/05/01 11:18:56;;;;;;;;;22.80;20.80;;;;;34.24;14.93;101828.31;5057373;28;45560;-40
2022/05/01 11:21:21;;;;;;;;;19.80;19.00;;;;;33.84;14.24;101827.25;5036494;28;46111;-40
2022/05/01 11:24:01;;;;;;;;;17.50;16.75;;;;;33.18;14.77;101813.38;5037127;28;45313;-39
2022/05/01 11:26:26;;;;;;;;;15.60;15.40;;;;;32.95;15.43;101815.53;5037123;28;45475;-39
2022/05/01 11:28:54;;;;;;;;;18.25;14.75;;;;;32.71;15.66;101817.06;5037296;28;45481;-40
2022/05/01 11:31:37;;;;;;;;;16.60;14.80;;;;;32.08;16.04;101813.38;5037087;28;46150;-40
2022/05/01 11:34:22;;;;;;;;;16.20;15.40;;;;;31.37;16.11;101814.41;5037187;28;45348;-40
2022/05/01 11:36:53;;;;;;;;;17.60;15.40;;;;;30.68;16.69;101803.16;5057322;28;45673;-40
2022/05/01 11:39:22;;;;;;;;;15.40;14.60;;;;;29.90;17.33;101805.00;5057455;28;45383;-44
2022/05/01 11:42:00;;;;;;;;;15.40;13.40;;;;;29.18;18.07;101801.00;5057069;28;46330;-40
2022/05/01 11:44:25;;;;;;;;;14.20;14.00;;;;;28.52;18.54;101802.38;5056994;28;45420;-42
2022/05/01 11:46:55;;;;;;;;;14.75;12.75;;;;;27.56;19.39;101797.06;5057236;28;45939;-42